sensor_id;sensor_type;location;lat;lon;timestamp;temperature;humidity
25074;DHT22;13066;52.042;5.648;2022-08-26T00:02:09;23.30;96.50
25074;DHT22;13066;52.042;5.648;2022-08-26T00:04:39;23.30;96.50
25074;DHT22;13066;52.042;5.648;2022-08-26T00:07:08;23.30;96.50
25074;DHT22;13066;52.042;5.648;2022-08-26T00:09:36;23.20;96.40
25074;DHT22;13066;52.042;5.648;2022-08-26T00:12:07;23.20;96.50
25074;DHT22;13066;52.042;5.648;2022-08-26T00:14:39;23.20;96.50
25074;DHT22;13066;52.042;5.648;2022-08-26T00:17:08;23.20;96.50
25074;DHT22;13066;52.042;5.648;2022-08-26T00:19:36;23.20;96.50
25074;DHT22;13066;52.042;5.648;2022-08-26T00:22:06;23.20;96.50
25074;DHT22;13066;52.042;5.648;2022-08-26T00:24:34;23.20;96.60
25074;DHT22;13066;52.042;5.648;2022-08-26T00:27:03;23.10;96.60
25074;DHT22;13066;52.042;5.648;2022-08-26T00:29:32;23.10;96.60
25074;DHT22;13066;52.042;5.648;2022-08-26T00:32:04;23.10;96.60
25074;DHT22;13066;52.042;5.648;2022-08-26T00:34:32;23.00;96.60
25074;DHT22;13066;52.042;5.648;2022-08-26T00:37:01;23.00;96.60
25074;DHT22;13066;52.042;5.648;2022-08-26T00:39:36;23.00;96.60
25074;DHT22;13066;52.042;5.648;2022-08-26T00:42:04;23.00;96.60
25074;DHT22;13066;52.042;5.648;2022-08-26T00:44:32;22.90;96.60
25074;DHT22;13066;52.042;5.648;2022-08-26T00:47:03;23.00;96.60
25074;DHT22;13066;52.042;5.648;2022-08-26T00:49:36;23.00;96.60
25074;DHT22;13066;52.042;5.648;2022-08-26T00:52:09;23.00;96.50
25074;DHT22;13066;52.042;5.648;2022-08-26T00:54:44;23.00;96.50
25074;DHT22;13066;52.042;5.648;2022-08-26T00:57:15;23.00;96.50
25074;DHT22;13066;52.042;5.648;2022-08-26T00:59:47;23.00;96.90
25074;DHT22;13066;52.042;5.648;2022-08-26T01:02:16;23.00;96.60
25074;DHT22;13066;52.042;5.648;2022-08-26T01:04:49;23.00;96.60
25074;DHT22;13066;52.042;5.648;2022-08-26T01:07:22;23.00;96.50
25074;DHT22;13066;52.042;5.648;2022-08-26T01:09:52;23.00;96.50
25074;DHT22;13066;52.042;5.648;2022-08-26T01:12:22;23.00;96.50
25074;DHT22;13066;52.042;5.648;2022-08-26T01:14:50;23.00;96.50
25074;DHT22;13066;52.042;5.648;2022-08-26T01:17:19;23.00;96.50
25074;DHT22;13066;52.042;5.648;2022-08-26T01:19:50;23.00;96.60
25074;DHT22;13066;52.042;5.648;2022-08-26T01:22:21;23.00;96.60
25074;DHT22;13066;52.042;5.648;2022-08-26T01:24:56;22.90;96.60
25074;DHT22;13066;52.042;5.648;2022-08-26T01:27:26;22.90;96.70
25074;DHT22;13066;52.042;5.648;2022-08-26T01:29:59;22.90;96.70
25074;DHT22;13066;52.042;5.648;2022-08-26T01:32:28;22.90;96.90
25074;DHT22;13066;52.042;5.648;2022-08-26T01:34:58;22.80;96.90
25074;DHT22;13066;52.042;5.648;2022-08-26T01:37:32;22.90;96.90
25074;DHT22;13066;52.042;5.648;2022-08-26T01:40:08;22.90;96.80
25074;DHT22;13066;52.042;5.648;2022-08-26T01:42:40;22.90;96.80
25074;DHT22;13066;52.042;5.648;2022-08-26T01:45:12;22.80;96.80
25074;DHT22;13066;52.042;5.648;2022-08-26T01:47:42;22.80;96.90
25074;DHT22;13066;52.042;5.648;2022-08-26T01:50:13;22.80;96.90
25074;DHT22;13066;52.042;5.648;2022-08-26T01:52:54;22.80;97.00
25074;DHT22;13066;52.042;5.648;2022-08-26T01:55:24;22.70;97.10
25074;DHT22;13066;52.042;5.648;2022-08-26T01:58:02;22.70;97.30
25074;DHT22;13066;52.042;5.648;2022-08-26T02:00:32;22.60;97.30
25074;DHT22;13066;52.042;5.648;2022-08-26T02:03:02;22.60;97.40
25074;DHT22;13066;52.042;5.648;2022-08-26T02:05:44;22.60;97.40
25074;DHT22;13066;52.042;5.648;2022-08-26T02:08:17;22.60;97.70
25074;DHT22;13066;52.042;5.648;2022-08-26T02:10:52;22.60;97.50
25074;DHT22;13066;52.042;5.648;2022-08-26T02:13:21;22.60;97.60
25074;DHT22;13066;52.042;5.648;2022-08-26T02:15:50;22.60;97.70
25074;DHT22;13066;52.042;5.648;2022-08-26T02:18:18;22.60;97.80
25074;DHT22;13066;52.042;5.648;2022-08-26T02:20:48;22.60;97.80
25074;DHT22;13066;52.042;5.648;2022-08-26T02:23:19;22.50;97.80
25074;DHT22;13066;52.042;5.648;2022-08-26T02:25:54;22.50;97.90
25074;DHT22;13066;52.042;5.648;2022-08-26T02:28:23;22.50;98.00
25074;DHT22;13066;52.042;5.648;2022-08-26T02:30:54;22.50;98.00
25074;DHT22;13066;52.042;5.648;2022-08-26T02:33:22;22.50;98.10
25074;DHT22;13066;52.042;5.648;2022-08-26T02:35:50;22.50;98.10
25074;DHT22;13066;52.042;5.648;2022-08-26T02:38:18;22.50;98.10
25074;DHT22;13066;52.042;5.648;2022-08-26T02:40:47;22.50;98.20
25074;DHT22;13066;52.042;5.648;2022-08-26T02:43:18;22.50;98.20
25074;DHT22;13066;52.042;5.648;2022-08-26T02:45:58;22.50;98.10
25074;DHT22;13066;52.042;5.648;2022-08-26T02:48:28;22.50;98.20
25074;DHT22;13066;52.042;5.648;2022-08-26T02:50:58;22.50;98.20
25074;DHT22;13066;52.042;5.648;2022-08-26T02:53:27;22.50;98.50
25074;DHT22;13066;52.042;5.648;2022-08-26T02:56:01;22.50;98.20
25074;DHT22;13066;52.042;5.648;2022-08-26T02:58:31;22.50;98.20
25074;DHT22;13066;52.042;5.648;2022-08-26T03:00:59;22.50;98.30
25074;DHT22;13066;52.042;5.648;2022-08-26T03:03:30;22.50;98.30
25074;DHT22;13066;52.042;5.648;2022-08-26T03:05:58;22.50;98.30
25074;DHT22;13066;52.042;5.648;2022-08-26T03:08:27;22.50;98.30
25074;DHT22;13066;52.042;5.648;2022-08-26T03:10:55;22.50;98.30
25074;DHT22;13066;52.042;5.648;2022-08-26T03:13:23;22.50;98.30
25074;DHT22;13066;52.042;5.648;2022-08-26T03:15:53;22.50;98.30
25074;DHT22;13066;52.042;5.648;2022-08-26T03:18:22;22.50;98.30
25074;DHT22;13066;52.042;5.648;2022-08-26T03:20:50;22.40;98.30
25074;DHT22;13066;52.042;5.648;2022-08-26T03:23:18;22.40;98.30
25074;DHT22;13066;52.042;5.648;2022-08-26T03:25:48;22.40;98.30
25074;DHT22;13066;52.042;5.648;2022-08-26T03:28:17;22.40;98.30
25074;DHT22;13066;52.042;5.648;2022-08-26T03:30:45;22.40;98.40
25074;DHT22;13066;52.042;5.648;2022-08-26T03:33:17;22.40;98.40
25074;DHT22;13066;52.042;5.648;2022-08-26T03:35:46;22.40;98.40
25074;DHT22;13066;52.042;5.648;2022-08-26T03:38:17;22.30;98.40
25074;DHT22;13066;52.042;5.648;2022-08-26T03:40:46;22.30;98.50
25074;DHT22;13066;52.042;5.648;2022-08-26T03:43:16;22.30;98.60
25074;DHT22;13066;52.042;5.648;2022-08-26T03:45:44;22.30;98.60
25074;DHT22;13066;52.042;5.648;2022-08-26T03:48:13;22.30;98.60
25074;DHT22;13066;52.042;5.648;2022-08-26T03:50:42;22.20;98.60
25074;DHT22;13066;52.042;5.648;2022-08-26T03:53:10;22.20;98.60
25074;DHT22;13066;52.042;5.648;2022-08-26T03:55:39;22.30;98.70
25074;DHT22;13066;52.042;5.648;2022-08-26T03:58:09;22.20;98.70
25074;DHT22;13066;52.042;5.648;2022-08-26T04:00:37;22.20;98.70
25074;DHT22;13066;52.042;5.648;2022-08-26T04:03:06;22.20;98.70
25074;DHT22;13066;52.042;5.648;2022-08-26T04:05:36;22.20;98.70
25074;DHT22;13066;52.042;5.648;2022-08-26T04:08:05;22.20;98.80
25074;DHT22;13066;52.042;5.648;2022-08-26T04:10:36;22.20;98.80
25074;DHT22;13066;52.042;5.648;2022-08-26T04:13:05;22.20;99.10
25074;DHT22;13066;52.042;5.648;2022-08-26T04:15:33;22.20;98.80
25074;DHT22;13066;52.042;5.648;2022-08-26T04:18:02;22.20;98.80
25074;DHT22;13066;52.042;5.648;2022-08-26T04:20:30;22.20;98.80
25074;DHT22;13066;52.042;5.648;2022-08-26T04:22:58;22.20;98.80
25074;DHT22;13066;52.042;5.648;2022-08-26T04:25:27;22.20;98.80
25074;DHT22;13066;52.042;5.648;2022-08-26T04:27:55;22.20;98.80
25074;DHT22;13066;52.042;5.648;2022-08-26T04:30:23;22.20;98.70
25074;DHT22;13066;52.042;5.648;2022-08-26T04:32:52;22.30;98.80
25074;DHT22;13066;52.042;5.648;2022-08-26T04:35:20;22.30;98.80
25074;DHT22;13066;52.042;5.648;2022-08-26T04:37:52;22.30;98.80
25074;DHT22;13066;52.042;5.648;2022-08-26T04:40:21;22.20;98.80
25074;DHT22;13066;52.042;5.648;2022-08-26T04:42:53;22.30;98.90
25074;DHT22;13066;52.042;5.648;2022-08-26T04:45:21;22.30;98.90
25074;DHT22;13066;52.042;5.648;2022-08-26T04:47:53;22.30;98.90
25074;DHT22;13066;52.042;5.648;2022-08-26T04:50:23;22.30;98.90
25074;DHT22;13066;52.042;5.648;2022-08-26T04:52:52;22.20;99.00
25074;DHT22;13066;52.042;5.648;2022-08-26T04:55:21;22.20;99.00
25074;DHT22;13066;52.042;5.648;2022-08-26T04:58:06;22.20;99.00
25074;DHT22;13066;52.042;5.648;2022-08-26T05:00:36;22.20;99.00
25074;DHT22;13066;52.042;5.648;2022-08-26T05:03:05;22.20;99.00
25074;DHT22;13066;52.042;5.648;2022-08-26T05:05:37;22.30;99.00
25074;DHT22;13066;52.042;5.648;2022-08-26T05:08:07;22.20;99.00
25074;DHT22;13066;52.042;5.648;2022-08-26T05:10:38;22.20;98.90
25074;DHT22;13066;52.042;5.648;2022-08-26T05:13:11;22.30;98.90
25074;DHT22;13066;52.042;5.648;2022-08-26T05:15:43;22.20;98.90
25074;DHT22;13066;52.042;5.648;2022-08-26T05:18:12;22.30;98.80
25074;DHT22;13066;52.042;5.648;2022-08-26T05:20:42;22.30;98.80
25074;DHT22;13066;52.042;5.648;2022-08-26T05:23:12;22.30;98.70
25074;DHT22;13066;52.042;5.648;2022-08-26T05:25:44;22.30;98.60
25074;DHT22;13066;52.042;5.648;2022-08-26T05:28:15;22.30;98.60
25074;DHT22;13066;52.042;5.648;2022-08-26T05:30:44;22.30;98.50
25074;DHT22;13066;52.042;5.648;2022-08-26T05:33:13;22.30;98.50
25074;DHT22;13066;52.042;5.648;2022-08-26T05:35:43;22.30;98.50
25074;DHT22;13066;52.042;5.648;2022-08-26T05:38:13;22.30;98.40
25074;DHT22;13066;52.042;5.648;2022-08-26T05:40:43;22.30;98.40
25074;DHT22;13066;52.042;5.648;2022-08-26T05:43:13;22.30;98.40
25074;DHT22;13066;52.042;5.648;2022-08-26T05:45:48;22.30;98.40
25074;DHT22;13066;52.042;5.648;2022-08-26T05:48:18;22.20;98.40
25074;DHT22;13066;52.042;5.648;2022-08-26T05:50:51;22.20;98.50
25074;DHT22;13066;52.042;5.648;2022-08-26T05:53:20;22.30;98.40
25074;DHT22;13066;52.042;5.648;2022-08-26T05:55:52;22.20;98.40
25074;DHT22;13066;52.042;5.648;2022-08-26T05:58:23;22.20;98.40
25074;DHT22;13066;52.042;5.648;2022-08-26T06:00:59;22.20;98.40
25074;DHT22;13066;52.042;5.648;2022-08-26T06:03:29;22.20;98.50
25074;DHT22;13066;52.042;5.648;2022-08-26T06:06:02;22.20;98.50
25074;DHT22;13066;52.042;5.648;2022-08-26T06:08:32;22.20;98.50
25074;DHT22;13066;52.042;5.648;2022-08-26T06:11:03;22.20;98.50
25074;DHT22;13066;52.042;5.648;2022-08-26T06:13:34;22.20;98.50
25074;DHT22;13066;52.042;5.648;2022-08-26T06:16:04;22.20;98.50
25074;DHT22;13066;52.042;5.648;2022-08-26T06:18:35;22.20;98.40
25074;DHT22;13066;52.042;5.648;2022-08-26T06:21:12;22.20;98.40
25074;DHT22;13066;52.042;5.648;2022-08-26T06:23:42;22.20;98.30
25074;DHT22;13066;52.042;5.648;2022-08-26T06:26:29;22.20;98.40
25074;DHT22;13066;52.042;5.648;2022-08-26T06:28:58;22.20;98.40
25074;DHT22;13066;52.042;5.648;2022-08-26T06:31:31;22.20;98.70
25074;DHT22;13066;52.042;5.648;2022-08-26T06:34:00;22.20;98.40
25074;DHT22;13066;52.042;5.648;2022-08-26T06:36:33;22.20;98.40
25074;DHT22;13066;52.042;5.648;2022-08-26T06:39:06;22.20;98.30
25074;DHT22;13066;52.042;5.648;2022-08-26T06:41:36;22.20;98.20
25074;DHT22;13066;52.042;5.648;2022-08-26T06:44:11;22.20;98.20
25074;DHT22;13066;52.042;5.648;2022-08-26T06:46:40;22.20;98.20
25074;DHT22;13066;52.042;5.648;2022-08-26T06:49:10;22.20;98.20
25074;DHT22;13066;52.042;5.648;2022-08-26T06:51:43;22.20;98.20
25074;DHT22;13066;52.042;5.648;2022-08-26T06:54:14;22.20;98.10
25074;DHT22;13066;52.042;5.648;2022-08-26T06:56:42;22.20;98.10
25074;DHT22;13066;52.042;5.648;2022-08-26T06:59:14;22.30;98.00
25074;DHT22;13066;52.042;5.648;2022-08-26T07:01:43;22.30;97.90
25074;DHT22;13066;52.042;5.648;2022-08-26T07:04:13;22.40;97.80
25074;DHT22;13066;52.042;5.648;2022-08-26T07:06:48;22.40;97.80
25074;DHT22;13066;52.042;5.648;2022-08-26T07:09:20;22.40;97.60
25074;DHT22;13066;52.042;5.648;2022-08-26T07:11:49;22.40;97.60
25074;DHT22;13066;52.042;5.648;2022-08-26T07:14:19;22.40;97.60
25074;DHT22;13066;52.042;5.648;2022-08-26T07:16:48;22.50;97.50
25074;DHT22;13066;52.042;5.648;2022-08-26T07:19:17;22.50;97.40
25074;DHT22;13066;52.042;5.648;2022-08-26T07:21:57;22.50;97.40
25074;DHT22;13066;52.042;5.648;2022-08-26T07:24:25;22.60;97.30
25074;DHT22;13066;52.042;5.648;2022-08-26T07:26:58;22.60;97.60
25074;DHT22;13066;52.042;5.648;2022-08-26T07:29:27;22.60;97.20
25074;DHT22;13066;52.042;5.648;2022-08-26T07:31:56;22.60;97.20
25074;DHT22;13066;52.042;5.648;2022-08-26T07:34:25;22.60;97.20
25074;DHT22;13066;52.042;5.648;2022-08-26T07:36:53;22.60;97.10
25074;DHT22;13066;52.042;5.648;2022-08-26T07:39:25;22.60;97.00
25074;DHT22;13066;52.042;5.648;2022-08-26T07:41:54;22.60;96.90
25074;DHT22;13066;52.042;5.648;2022-08-26T07:44:23;22.60;96.90
25074;DHT22;13066;52.042;5.648;2022-08-26T07:46:54;22.60;96.80
25074;DHT22;13066;52.042;5.648;2022-08-26T07:49:23;22.60;96.80
25074;DHT22;13066;52.042;5.648;2022-08-26T07:51:54;22.70;96.80
25074;DHT22;13066;52.042;5.648;2022-08-26T07:54:22;22.70;96.70
25074;DHT22;13066;52.042;5.648;2022-08-26T07:56:53;22.80;96.50
25074;DHT22;13066;52.042;5.648;2022-08-26T07:59:22;22.80;96.40
25074;DHT22;13066;52.042;5.648;2022-08-26T08:01:50;22.80;96.30
25074;DHT22;13066;52.042;5.648;2022-08-26T08:04:19;22.80;96.30
25074;DHT22;13066;52.042;5.648;2022-08-26T08:06:52;22.80;96.20
25074;DHT22;13066;52.042;5.648;2022-08-26T08:09:21;22.80;96.10
25074;DHT22;13066;52.042;5.648;2022-08-26T08:11:50;22.80;96.00
25074;DHT22;13066;52.042;5.648;2022-08-26T08:14:18;22.80;95.90
25074;DHT22;13066;52.042;5.648;2022-08-26T08:16:48;22.80;95.90
25074;DHT22;13066;52.042;5.648;2022-08-26T08:19:21;22.80;95.80
25074;DHT22;13066;52.042;5.648;2022-08-26T08:22:02;22.80;95.80
25074;DHT22;13066;52.042;5.648;2022-08-26T08:24:43;22.80;95.80
25074;DHT22;13066;52.042;5.648;2022-08-26T08:27:15;22.90;95.80
25074;DHT22;13066;52.042;5.648;2022-08-26T08:29:49;22.90;95.70
25074;DHT22;13066;52.042;5.648;2022-08-26T08:32:20;22.90;95.60
25074;DHT22;13066;52.042;5.648;2022-08-26T08:34:50;22.80;95.60
25074;DHT22;13066;52.042;5.648;2022-08-26T08:37:19;22.90;95.60
25074;DHT22;13066;52.042;5.648;2022-08-26T08:39:47;22.90;95.60
25074;DHT22;13066;52.042;5.648;2022-08-26T08:42:34;22.90;95.50
25074;DHT22;13066;52.042;5.648;2022-08-26T08:45:08;22.90;95.50
25074;DHT22;13066;52.042;5.648;2022-08-26T08:47:39;22.90;95.40
25074;DHT22;13066;52.042;5.648;2022-08-26T08:50:19;22.90;95.30
25074;DHT22;13066;52.042;5.648;2022-08-26T08:52:54;22.90;95.20
25074;DHT22;13066;52.042;5.648;2022-08-26T08:55:24;22.90;95.30
25074;DHT22;13066;52.042;5.648;2022-08-26T08:58:02;22.90;95.60
25074;DHT22;13066;52.042;5.648;2022-08-26T09:00:38;22.80;95.30
25074;DHT22;13066;52.042;5.648;2022-08-26T09:03:17;22.80;95.30
25074;DHT22;13066;52.042;5.648;2022-08-26T09:05:49;22.70;95.30
25074;DHT22;13066;52.042;5.648;2022-08-26T09:08:23;22.70;95.40
25074;DHT22;13066;52.042;5.648;2022-08-26T09:10:55;22.60;95.40
25074;DHT22;13066;52.042;5.648;2022-08-26T09:13:26;22.60;95.50
25074;DHT22;13066;52.042;5.648;2022-08-26T09:16:03;22.60;95.50
25074;DHT22;13066;52.042;5.648;2022-08-26T09:18:46;22.60;95.60
25074;DHT22;13066;52.042;5.648;2022-08-26T09:21:21;22.60;95.60
25074;DHT22;13066;52.042;5.648;2022-08-26T09:23:51;22.60;95.60
25074;DHT22;13066;52.042;5.648;2022-08-26T09:26:26;22.60;95.60
25074;DHT22;13066;52.042;5.648;2022-08-26T09:28:58;22.60;95.60
25074;DHT22;13066;52.042;5.648;2022-08-26T09:31:29;22.60;95.50
25074;DHT22;13066;52.042;5.648;2022-08-26T09:34:07;22.50;95.70
25074;DHT22;13066;52.042;5.648;2022-08-26T09:36:46;22.60;95.70
25074;DHT22;13066;52.042;5.648;2022-08-26T09:39:31;22.60;95.50
25074;DHT22;13066;52.042;5.648;2022-08-26T09:42:10;22.60;95.50
25074;DHT22;13066;52.042;5.648;2022-08-26T09:44:52;22.60;95.40
25074;DHT22;13066;52.042;5.648;2022-08-26T09:47:28;22.60;95.40
25074;DHT22;13066;52.042;5.648;2022-08-26T09:50:01;22.60;95.50
25074;DHT22;13066;52.042;5.648;2022-08-26T09:52:39;22.60;95.50
25074;DHT22;13066;52.042;5.648;2022-08-26T09:55:11;22.60;95.40
25074;DHT22;13066;52.042;5.648;2022-08-26T09:57:46;22.60;95.40
25074;DHT22;13066;52.042;5.648;2022-08-26T10:00:26;22.60;95.40
25074;DHT22;13066;52.042;5.648;2022-08-26T10:02:57;22.60;95.40
25074;DHT22;13066;52.042;5.648;2022-08-26T10:05:35;22.50;95.40
25074;DHT22;13066;52.042;5.648;2022-08-26T10:08:23;22.50;95.40
25074;DHT22;13066;52.042;5.648;2022-08-26T10:10:53;22.60;95.40
25074;DHT22;13066;52.042;5.648;2022-08-26T10:13:26;22.50;95.40
25074;DHT22;13066;52.042;5.648;2022-08-26T10:16:05;22.60;95.30
25074;DHT22;13066;52.042;5.648;2022-08-26T10:18:39;22.60;95.30
25074;DHT22;13066;52.042;5.648;2022-08-26T10:21:13;22.60;95.30
25074;DHT22;13066;52.042;5.648;2022-08-26T10:23:48;22.60;95.20
25074;DHT22;13066;52.042;5.648;2022-08-26T10:26:20;22.60;95.20
25074;DHT22;13066;52.042;5.648;2022-08-26T10:28:53;22.60;95.10
25074;DHT22;13066;52.042;5.648;2022-08-26T10:31:27;22.60;95.10
25074;DHT22;13066;52.042;5.648;2022-08-26T10:34:04;22.60;95.10
25074;DHT22;13066;52.042;5.648;2022-08-26T10:36:35;22.60;95.20
25074;DHT22;13066;52.042;5.648;2022-08-26T10:39:43;22.70;95.10
25074;DHT22;13066;52.042;5.648;2022-08-26T10:42:16;22.60;95.00
25074;DHT22;13066;52.042;5.648;2022-08-26T10:44:50;22.70;95.00
25074;DHT22;13066;52.042;5.648;2022-08-26T10:47:29;22.70;95.00
25074;DHT22;13066;52.042;5.648;2022-08-26T10:50:00;22.60;95.00
25074;DHT22;13066;52.042;5.648;2022-08-26T10:52:37;22.70;95.00
25074;DHT22;13066;52.042;5.648;2022-08-26T10:55:15;22.60;95.00
25074;DHT22;13066;52.042;5.648;2022-08-26T10:57:50;22.70;95.00
25074;DHT22;13066;52.042;5.648;2022-08-26T11:00:26;22.70;94.90
25074;DHT22;13066;52.042;5.648;2022-08-26T11:03:25;22.60;94.90
25074;DHT22;13066;52.042;5.648;2022-08-26T11:06:20;22.70;95.00
25074;DHT22;13066;52.042;5.648;2022-08-26T11:08:49;22.70;94.90
25074;DHT22;13066;52.042;5.648;2022-08-26T11:11:48;22.60;94.80
25074;DHT22;13066;52.042;5.648;2022-08-26T11:14:40;22.70;94.70
25074;DHT22;13066;52.042;5.648;2022-08-26T11:20:32;22.60;94.50
25074;DHT22;13066;52.042;5.648;2022-08-26T11:23:43;22.60;94.40
25074;DHT22;13066;52.042;5.648;2022-08-26T11:26:18;22.70;94.30
25074;DHT22;13066;52.042;5.648;2022-08-26T11:29:10;22.60;94.30
25074;DHT22;13066;52.042;5.648;2022-08-26T11:31:53;22.70;94.10
25074;DHT22;13066;52.042;5.648;2022-08-26T11:34:53;22.80;94.00
25074;DHT22;13066;52.042;5.648;2022-08-26T11:37:26;23.00;93.80
25074;DHT22;13066;52.042;5.648;2022-08-26T11:40:00;23.00;93.60
25074;DHT22;13066;52.042;5.648;2022-08-26T11:42:34;23.10;93.50
25074;DHT22;13066;52.042;5.648;2022-08-26T11:45:17;23.30;93.40
25074;DHT22;13066;52.042;5.648;2022-08-26T11:47:46;23.50;93.00
25074;DHT22;13066;52.042;5.648;2022-08-26T11:50:18;23.70;92.60
25074;DHT22;13066;52.042;5.648;2022-08-26T11:52:52;23.80;92.20
25074;DHT22;13066;52.042;5.648;2022-08-26T11:55:22;24.00;92.10
25074;DHT22;13066;52.042;5.648;2022-08-26T11:57:52;24.00;91.60
25074;DHT22;13066;52.042;5.648;2022-08-26T12:00:25;24.10;91.40
25074;DHT22;13066;52.042;5.648;2022-08-26T12:03:01;24.10;91.30
25074;DHT22;13066;52.042;5.648;2022-08-26T12:05:35;24.10;91.40
25074;DHT22;13066;52.042;5.648;2022-08-26T12:08:07;24.10;91.30
25074;DHT22;13066;52.042;5.648;2022-08-26T12:10:37;24.10;91.20
25074;DHT22;13066;52.042;5.648;2022-08-26T12:13:06;24.00;91.20
25074;DHT22;13066;52.042;5.648;2022-08-26T12:15:36;24.00;91.30
25074;DHT22;13066;52.042;5.648;2022-08-26T12:18:18;23.90;91.20
25074;DHT22;13066;52.042;5.648;2022-08-26T12:20:57;23.90;91.10
25074;DHT22;13066;52.042;5.648;2022-08-26T12:23:35;23.80;91.40
25074;DHT22;13066;52.042;5.648;2022-08-26T12:26:08;23.70;91.40
25074;DHT22;13066;52.042;5.648;2022-08-26T12:28:45;23.60;91.40
25074;DHT22;13066;52.042;5.648;2022-08-26T12:31:22;23.60;91.70
25074;DHT22;13066;52.042;5.648;2022-08-26T12:33:51;23.50;91.80
25074;DHT22;13066;52.042;5.648;2022-08-26T12:36:24;23.50;91.90
25074;DHT22;13066;52.042;5.648;2022-08-26T12:38:54;23.40;91.80
25074;DHT22;13066;52.042;5.648;2022-08-26T12:41:38;23.30;91.80
25074;DHT22;13066;52.042;5.648;2022-08-26T12:44:06;23.30;91.80
25074;DHT22;13066;52.042;5.648;2022-08-26T12:46:36;23.30;91.80
25074;DHT22;13066;52.042;5.648;2022-08-26T12:49:04;23.30;91.80
25074;DHT22;13066;52.042;5.648;2022-08-26T12:51:32;23.30;91.70
25074;DHT22;13066;52.042;5.648;2022-08-26T12:54:12;23.30;91.60
25074;DHT22;13066;52.042;5.648;2022-08-26T12:56:41;23.40;91.70
25074;DHT22;13066;52.042;5.648;2022-08-26T12:59:20;23.40;91.70
25074;DHT22;13066;52.042;5.648;2022-08-26T13:01:51;23.40;91.60
25074;DHT22;13066;52.042;5.648;2022-08-26T13:04:38;23.30;91.60
25074;DHT22;13066;52.042;5.648;2022-08-26T13:07:20;23.40;91.60
25074;DHT22;13066;52.042;5.648;2022-08-26T13:09:51;23.30;91.60
25074;DHT22;13066;52.042;5.648;2022-08-26T13:12:28;23.30;91.70
25074;DHT22;13066;52.042;5.648;2022-08-26T13:14:57;23.20;91.80
25074;DHT22;13066;52.042;5.648;2022-08-26T13:17:28;23.10;91.90
25074;DHT22;13066;52.042;5.648;2022-08-26T13:19:56;23.10;91.90
25074;DHT22;13066;52.042;5.648;2022-08-26T13:22:30;23.10;92.00
25074;DHT22;13066;52.042;5.648;2022-08-26T13:24:58;23.00;91.70
25074;DHT22;13066;52.042;5.648;2022-08-26T13:27:26;23.00;92.00
25074;DHT22;13066;52.042;5.648;2022-08-26T13:29:54;23.00;92.40
25074;DHT22;13066;52.042;5.648;2022-08-26T13:32:24;23.00;92.80
25074;DHT22;13066;52.042;5.648;2022-08-26T13:34:55;22.90;92.80
25074;DHT22;13066;52.042;5.648;2022-08-26T13:37:25;22.80;92.90
25074;DHT22;13066;52.042;5.648;2022-08-26T13:40:02;22.80;93.00
25074;DHT22;13066;52.042;5.648;2022-08-26T13:42:30;22.70;93.00
25074;DHT22;13066;52.042;5.648;2022-08-26T13:45:00;22.70;93.00
25074;DHT22;13066;52.042;5.648;2022-08-26T13:47:28;22.60;93.00
25074;DHT22;13066;52.042;5.648;2022-08-26T13:49:58;22.60;93.10
25074;DHT22;13066;52.042;5.648;2022-08-26T13:52:26;22.60;93.20
25074;DHT22;13066;52.042;5.648;2022-08-26T13:54:57;22.60;93.40
25074;DHT22;13066;52.042;5.648;2022-08-26T13:57:26;22.60;93.50
25074;DHT22;13066;52.042;5.648;2022-08-26T13:59:56;22.60;93.50
25074;DHT22;13066;52.042;5.648;2022-08-26T14:02:25;22.60;93.60
25074;DHT22;13066;52.042;5.648;2022-08-26T14:04:53;22.50;93.80
25074;DHT22;13066;52.042;5.648;2022-08-26T14:07:23;22.50;94.20
25074;DHT22;13066;52.042;5.648;2022-08-26T14:09:51;22.50;94.60
25074;DHT22;13066;52.042;5.648;2022-08-26T14:12:20;22.40;94.90
25074;DHT22;13066;52.042;5.648;2022-08-26T14:14:48;22.40;95.40
25074;DHT22;13066;52.042;5.648;2022-08-26T14:17:18;22.30;95.60
25074;DHT22;13066;52.042;5.648;2022-08-26T14:19:48;22.30;95.90
25074;DHT22;13066;52.042;5.648;2022-08-26T14:22:18;22.20;96.10
25074;DHT22;13066;52.042;5.648;2022-08-26T14:24:48;22.20;96.40
25074;DHT22;13066;52.042;5.648;2022-08-26T14:27:16;22.20;96.60
25074;DHT22;13066;52.042;5.648;2022-08-26T14:29:44;22.20;96.80
25074;DHT22;13066;52.042;5.648;2022-08-26T14:32:19;22.20;97.10
25074;DHT22;13066;52.042;5.648;2022-08-26T14:34:49;22.30;97.10
25074;DHT22;13066;52.042;5.648;2022-08-26T14:37:17;22.20;97.10
25074;DHT22;13066;52.042;5.648;2022-08-26T14:39:48;22.20;97.20
25074;DHT22;13066;52.042;5.648;2022-08-26T14:42:19;22.20;97.30
25074;DHT22;13066;52.042;5.648;2022-08-26T14:44:52;22.20;97.40
25074;DHT22;13066;52.042;5.648;2022-08-26T14:47:21;22.20;97.40
25074;DHT22;13066;52.042;5.648;2022-08-26T14:49:50;22.20;97.50
25074;DHT22;13066;52.042;5.648;2022-08-26T14:52:18;22.20;97.40
25074;DHT22;13066;52.042;5.648;2022-08-26T14:54:48;22.20;97.20
25074;DHT22;13066;52.042;5.648;2022-08-26T14:57:21;22.20;96.80
25074;DHT22;13066;52.042;5.648;2022-08-26T14:59:49;22.20;97.10
25074;DHT22;13066;52.042;5.648;2022-08-26T15:02:17;22.20;96.90
25074;DHT22;13066;52.042;5.648;2022-08-26T15:04:58;22.20;97.10
25074;DHT22;13066;52.042;5.648;2022-08-26T15:07:26;22.20;97.00
25074;DHT22;13066;52.042;5.648;2022-08-26T15:09:56;22.20;97.00
25074;DHT22;13066;52.042;5.648;2022-08-26T15:12:24;22.20;97.00
25074;DHT22;13066;52.042;5.648;2022-08-26T15:14:53;22.20;96.90
25074;DHT22;13066;52.042;5.648;2022-08-26T15:17:21;22.20;96.90
25074;DHT22;13066;52.042;5.648;2022-08-26T15:19:49;22.30;97.20
25074;DHT22;13066;52.042;5.648;2022-08-26T15:22:17;22.30;96.70
25074;DHT22;13066;52.042;5.648;2022-08-26T15:24:45;22.30;96.50
25074;DHT22;13066;52.042;5.648;2022-08-26T15:27:20;22.30;96.50
25074;DHT22;13066;52.042;5.648;2022-08-26T15:29:48;22.30;96.40
25074;DHT22;13066;52.042;5.648;2022-08-26T15:32:17;22.30;96.40
25074;DHT22;13066;52.042;5.648;2022-08-26T15:34:45;22.30;96.20
25074;DHT22;13066;52.042;5.648;2022-08-26T15:37:15;22.30;95.80
25074;DHT22;13066;52.042;5.648;2022-08-26T15:39:43;22.30;95.50
25074;DHT22;13066;52.042;5.648;2022-08-26T15:42:11;22.30;95.30
25074;DHT22;13066;52.042;5.648;2022-08-26T15:44:43;22.30;95.30
25074;DHT22;13066;52.042;5.648;2022-08-26T15:47:11;22.30;95.30
25074;DHT22;13066;52.042;5.648;2022-08-26T15:49:40;22.40;95.30
25074;DHT22;13066;52.042;5.648;2022-08-26T15:52:08;22.50;95.30
25074;DHT22;13066;52.042;5.648;2022-08-26T15:54:36;22.50;95.30
25074;DHT22;13066;52.042;5.648;2022-08-26T15:57:06;22.60;94.90
25074;DHT22;13066;52.042;5.648;2022-08-26T15:59:38;22.60;94.60
25074;DHT22;13066;52.042;5.648;2022-08-26T16:02:07;22.70;94.30
25074;DHT22;13066;52.042;5.648;2022-08-26T16:04:36;22.80;94.20